Else Marie Theresa — OWJL2 — position and weather

sailwx.info

Track history (hours):
 
Tides and Currents Weather Stations Pressure Air Temp Water Temp Dewpoint Dewpoint Depression Visibility Wind Speed Wind Dir Waves Ship Positions

Else Marie Theresa

Last reported at 2017-Sep-20 18:29 UTC. Time now 2017-Sep-21 01:21 UTC.
Position N 54°14' E 011°59'.

Length 96 m; draft 6.8 m.

Type: Tanker. MMSI: 220002000.

Date/timePositionNaut miles runAvg speedWind from/ knotsBaromVisibWave heightAir tempDewpointWater temp
2017-Sep-20 18:29N 54°14' E 011°59'1 0.8
2017-Sep-20 17:30N 54°14' E 011°58'0 0.0
2017-Sep-20 15:30N 54°14' E 011°58'0 0.0
2017-Sep-20 15:00N 54°14' E 011°58'0 0.0
2017-Sep-20 12:45N 54°14' E 011°58'0 0.0
2017-Sep-20 12:29N 54°14' E 011°58'0 0.0
2017-Sep-20 11:59N 54°14' E 011°58'0 0.0
2017-Sep-20 11:29N 54°14' E 011°58'0 0.0
2017-Sep-20 09:44N 54°14' E 011°58'0 0.0
2017-Sep-20 09:29N 54°14' E 011°58'0 0.0
2017-Sep-20 08:59N 54°14' E 011°58'0 0.0
2017-Sep-20 07:44N 54°14' E 011°58'0 0.0
2017-Sep-20 07:29N 54°14' E 011°58'0 0.0
2017-Sep-20 05:12N 54°14' E 011°58'0 0.0
2017-Sep-20 04:48N 54°14' E 011°58'0 0.0
2017-Sep-20 01:29N 54°14' E 011°58'0 0.0
2017-Sep-19 23:32N 54°14' E 011°58'0 0.1
2017-Sep-19 23:29N 54°14' E 011°58'0 0.0
2017-Sep-19 22:59N 54°14' E 011°58'0 0.0
2017-Sep-19 22:29N 54°14' E 011°58'0 0.0
2017-Sep-19 21:59N 54°14' E 011°58'0 0.0
2017-Sep-19 20:44N 54°14' E 011°58'0 0.0
2017-Sep-19 20:29N 54°14' E 011°58'0 0.0
2017-Sep-19 19:17N 54°14' E 011°58'0 0.0
2017-Sep-19 18:59N 54°14' E 011°58'0 0.0
2017-Sep-19 17:14N 54°14' E 011°58'0 0.0
2017-Sep-19 16:59N 54°14' E 011°58'0 0.0
2017-Sep-19 16:17N 54°14' E 011°58'0 0.0
2017-Sep-19 15:59N 54°14' E 011°58'0 0.0
2017-Sep-19 15:14N 54°14' E 011°58'0 0.0
2017-Sep-19 14:59N 54°14' E 011°58'2 0.5
2017-Sep-19 10:03N 54°16' E 011°55'0 6.2
2017-Sep-19 10:00N 54°16' E 011°55'4 7.5
2017-Sep-19 09:30N 54°19' E 011°51'23 9.6
2017-Sep-19 07:05N 54°33' E 011°18'1 9.6
2017-Sep-19 07:00N 54°33' E 011°17'5 9.4
2017-Sep-19 06:30N 54°35' E 011°10'5 9.4
2017-Sep-19 06:00N 54°35' E 011°02'5 9.4
2017-Sep-19 05:30N 54°34' E 010°53'5 9.9
2017-Sep-19 05:00N 54°34' E 010°45'5 9.9
2017-Sep-19 04:30N 54°33' E 010°37'5 9.6
2017-Sep-19 04:00N 54°32' E 010°29'5 9.8
2017-Sep-19 03:29N 54°30' E 010°20'44 6.7
2017-Sep-18 20:54N 54°04' E 009°19'4 8.7
2017-Sep-18 20:30N 54°01' E 009°18'4 8.2
2017-Sep-18 20:00N 53°57' E 009°14'4 7.9
2017-Sep-18 19:30N 53°54' E 009°10'1 1.8
2017-Sep-18 19:00N 53°54' E 009°09'0 0.6
2017-Sep-18 18:30N 53°53' E 009°08'1 2.8
2017-Sep-18 18:00N 53°53' E 009°06'0 0.3
2017-Sep-18 17:30N 53°53' E 009°06'0 0.5
2017-Sep-18 17:00N 53°53' E 009°05'3 5.5
2017-Sep-18 16:30N 53°51' E 009°01'4 7.8
2017-Sep-18 16:01N 53°51' E 008°55'4 7.7
2017-Sep-18 15:30N 53°50' E 008°49'4 7.2
2017-Sep-18 15:01N 53°52' E 008°43'4 7.1
2017-Sep-18 14:30N 53°55' E 008°40'4 7.3
2017-Sep-18 14:00N 53°58' E 008°36'5 9.0
2017-Sep-18 13:30N 53°59' E 008°28'4 8.9
2017-Sep-18 13:00N 53°59' E 008°21'510.0
2017-Sep-18 12:30N 53°60' E 008°12'5 9.2
2017-Sep-18 12:00N 53°59' E 008°04'510.6
2017-Sep-18 11:29N 53°58' E 007°55'8912.1
2017-Sep-18 04:09N 53°34' E 005°31'213.3
2017-Sep-18 03:59N 53°34' E 005°27'613.3
2017-Sep-18 03:30N 53°32' E 005°17'713.1
2017-Sep-18 03:00N 53°30' E 005°07'613.0
2017-Sep-18 02:30N 53°27' E 004°56'612.8
2017-Sep-18 02:00N 53°25' E 004°47'611.8
2017-Sep-18 01:28N 53°20' E 004°40'3311.6
2017-Sep-17 22:39N 52°51' E 004°14'210.7
2017-Sep-17 22:26N 52°49' E 004°12'510.6
2017-Sep-17 21:55N 52°45' E 004°07'510.4
2017-Sep-17 21:25N 52°41' E 004°01'510.3
2017-Sep-17 20:54N 52°37' E 003°55'23 9.8
2017-Sep-17 18:34N 52°18' E 003°35'2 9.7
2017-Sep-17 18:25N 52°17' E 003°34'3310.3
2017-Sep-17 15:14N 51°45' E 003°17'2 9.6
2017-Sep-17 14:59N 51°43' E 003°17'611.6
2017-Sep-17 14:26N 51°37' E 003°22'511.6
2017-Sep-17 14:00N 51°33' E 003°25'612.5
2017-Sep-17 13:30N 51°28' E 003°31'5 9.0
2017-Sep-17 13:00N 51°26' E 003°38'510.9
2017-Sep-17 12:30N 51°23' E 003°44'2 4.1
2017-Sep-17 12:00N 51°21' E 003°46'0 0.0
2017-Sep-17 11:30N 51°21' E 003°46'0 0.0
2017-Sep-17 11:00N 51°21' E 003°46'0 0.0
2017-Sep-17 10:27N 51°21' E 003°46'0 0.0
2017-Sep-17 09:57N 51°21' E 003°46'0 0.0
2017-Sep-17 09:27N 51°21' E 003°46'0 0.0
2017-Sep-17 09:00N 51°21' E 003°46'0 0.0
2017-Sep-17 08:15N 51°21' E 003°46'0 0.0
2017-Sep-17 07:57N 51°21' E 003°46'0 0.0
2017-Sep-17 07:21N 51°21' E 003°46'0 0.0
2017-Sep-17 06:57N 51°21' E 003°46'0 0.0
2017-Sep-17 06:27N 51°21' E 003°46'0 0.0
2017-Sep-17 06:00N 51°21' E 003°46'0 0.0
2017-Sep-17 05:27N 51°21' E 003°46'0 0.0
2017-Sep-17 05:00N 51°21' E 003°46'0 0.0
2017-Sep-17 04:24N 51°21' E 003°46'0 0.0
2017-Sep-17 03:51N 51°21' E 003°46'0 0.0
2017-Sep-17 03:30N 51°21' E 003°46'0 0.0
2017-Sep-17 03:00N 51°21' E 003°46'0 0.0
2017-Sep-17 02:30N 51°21' E 003°46'0 0.0
2017-Sep-17 01:57N 51°21' E 003°46'0 0.0
2017-Sep-17 01:30N 51°21' E 003°46'0 0.0
2017-Sep-17 00:57N 51°21' E 003°46'0 0.0
2017-Sep-17 00:27N 51°21' E 003°46'0 0.0
2017-Sep-16 23:57N 51°21' E 003°46'0 0.0
2017-Sep-16 23:27N 51°21' E 003°46'0 0.0
2017-Sep-16 22:57N 51°21' E 003°46'0 0.0
2017-Sep-16 22:27N 51°21' E 003°46'0 0.0
2017-Sep-16 21:51N 51°21' E 003°46'0 0.0
2017-Sep-16 21:27N 51°21' E 003°46'0 0.0
2017-Sep-16 21:00N 51°21' E 003°46'0 0.0
2017-Sep-16 20:30N 51°21' E 003°46'0 0.0
2017-Sep-16 20:00N 51°21' E 003°46'0 0.0
2017-Sep-16 19:30N 51°21' E 003°46'0 0.0
2017-Sep-16 19:00N 51°21' E 003°46'0 0.0
2017-Sep-16 18:27N 51°21' E 003°46'0 0.0
2017-Sep-16 18:00N 51°21' E 003°46'0 0.0
2017-Sep-16 17:24N 51°21' E 003°46'0 0.0
2017-Sep-16 16:54N 51°21' E 003°46'0 0.0
2017-Sep-16 16:30N 51°21' E 003°46'0 0.0
2017-Sep-16 15:57N 51°21' E 003°46'0 0.0
2017-Sep-16 15:30N 51°21' E 003°46'0 0.0
2017-Sep-16 15:00N 51°21' E 003°46'0 0.0
2017-Sep-16 14:24N 51°21' E 003°46'0 0.0
2017-Sep-16 14:00N 51°21' E 003°46'0 0.0
2017-Sep-16 13:27N 51°21' E 003°46'0 0.0
2017-Sep-16 13:00N 51°21' E 003°46'0 0.0
2017-Sep-16 12:30N 51°21' E 003°46'0 0.0
2017-Sep-16 12:00N 51°21' E 003°46'0 0.0
2017-Sep-16 11:24N 51°21' E 003°46'0 0.0
2017-Sep-16 11:00N 51°21' E 003°46'0 0.0
2017-Sep-16 10:30N 51°21' E 003°46'0 0.0
2017-Sep-16 10:00N 51°21' E 003°46'0 0.0
2017-Sep-16 09:30N 51°21' E 003°46'0 0.0
2017-Sep-16 09:00N 51°21' E 003°46'0 0.0
2017-Sep-16 08:24N 51°21' E 003°46'0 0.0
2017-Sep-16 08:00N 51°21' E 003°46'0 0.0
2017-Sep-16 07:30N 51°21' E 003°46'1 2.6
2017-Sep-16 07:01N 51°22' E 003°45'2 4.9
2017-Sep-16 06:30N 51°24' E 003°42'3 6.8
2017-Sep-16 06:01N 51°26' E 003°39'510.0
2017-Sep-16 05:30N 51°28' E 003°31'611.9
2017-Sep-16 05:01N 51°32' E 003°25'611.8
2017-Sep-16 04:30N 51°38' E 003°21'612.3
2017-Sep-16 04:00N 51°43' E 003°16'4 8.4
2017-Sep-16 03:30N 51°46' E 003°21'2 0.8
2017-Sep-16 01:22N 51°47' E 003°23'0 0.0
2017-Sep-16 00:58N 51°47' E 003°23'0 0.0
2017-Sep-16 00:25N 51°47' E 003°23'0 0.0
2017-Sep-15 23:58N 51°47' E 003°23'0 0.1
2017-Sep-15 23:28N 51°47' E 003°23'0 0.0
2017-Sep-15 22:58N 51°47' E 003°23'0 0.0
2017-Sep-15 22:28N 51°47' E 003°23'0 0.0
2017-Sep-15 21:58N 51°47' E 003°23'0 0.0
2017-Sep-15 21:19N 51°47' E 003°23'0 0.0
2017-Sep-15 07:31N 51°47' E 003°23'0 0.0
2017-Sep-15 00:43N 51°47' E 003°23'0 0.1
2017-Sep-15 00:18N 51°47' E 003°23'0 0.0
2017-Sep-14 23:52N 51°47' E 003°23'0 0.1
2017-Sep-14 23:30N 51°47' E 003°23'0 0.1
2017-Sep-14 22:57N 51°47' E 003°23'0 0.0
2017-Sep-14 22:25N 51°47' E 003°23'0 0.0
2017-Sep-14 21:51N 51°47' E 003°23'0 0.0
2017-Sep-14 21:22N 51°47' E 003°23'0 0.0
2017-Sep-14 20:27N 51°47' E 003°23'0 0.0
2017-Sep-14 18:18N 51°47' E 003°23'2 6.8
2017-Sep-14 17:57N 51°47' E 003°19'712.4
2017-Sep-14 17:21N 51°45' E 003°08'512.4
2017-Sep-14 16:58N 51°44' E 003°00'0 0.1
2017-Sep-14 14:20N 51°43' E 003°00'6 9.8
2017-Sep-14 13:46N 51°45' E 002°51'3210.3
2017-Sep-14 10:37N 52°04' E 002°10'110.4
2017-Sep-14 10:30N 52°05' E 002°09'510.0
2017-Sep-14 10:01N 52°09' E 002°03'16 4.3
2017-Sep-14 06:22N 52°19' E 001°44'0 0.0
2017-Sep-14 05:58N 52°19' E 001°44'0 0.0
2017-Sep-14 05:22N 52°19' E 001°44'0 0.0
2017-Sep-14 04:58N 52°19' E 001°44'0 0.0
2017-Sep-13 09:20N 52°19' E 001°44'0 0.0
2017-Sep-13 08:56N 52°19' E 001°44'0 0.0
2017-Sep-13 08:20N 52°20' E 001°44'0 0.0
2017-Sep-13 07:44N 52°20' E 001°44'0 1.1
2017-Sep-13 07:28N 52°19' E 001°44'1 1.5
2017-Sep-13 07:00N 52°19' E 001°43'1 1.7
2017-Sep-13 06:30N 52°19' E 001°44'1 1.1
2017-Sep-13 06:00N 52°20' E 001°45'1 1.6
2017-Sep-13 05:30N 52°19' E 001°46'0 1.0
2017-Sep-13 05:00N 52°19' E 001°47'0 1.0
2017-Sep-13 04:30N 52°20' E 001°47'4 7.0
2017-Sep-13 03:55N 52°16' E 001°45'4 6.5
2017-Sep-13 03:18N 52°12' E 001°43'1 4.9
2017-Sep-13 03:00N 52°11' E 001°42'1 1.9
2017-Sep-13 02:30N 52°12' E 001°42'10 2.8
2017-Sep-12 23:07N 52°21' E 001°47'0 3.0
2017-Sep-12 22:59N 52°21' E 001°47'3 4.1
2017-Sep-12 22:22N 52°18' E 001°46'2 4.1
2017-Sep-12 22:00N 52°17' E 001°45'5 5.1
2017-Sep-12 21:03N 52°12' E 001°42'0 5.8
2017-Sep-12 21:00N 52°12' E 001°42'3 5.4
2017-Sep-12 20:30N 52°09' E 001°41'4 8.7
2017-Sep-12 20:00N 52°07' E 001°47'510.2
2017-Sep-12 19:30N 52°07' E 001°56'510.2
2017-Sep-12 19:00N 52°07' E 002°04'62120.3
2017-Sep-12 18:30N 52°03' E 003°44'0 0.0
2017-Sep-12 18:00N 52°03' E 003°44'0 0.0
2017-Sep-12 17:30N 52°03' E 003°44'0 0.0
2017-Sep-12 17:00N 52°03' E 003°44'0 0.0
2017-Sep-12 16:30N 52°03' E 003°44'0 0.0
2017-Sep-12 16:00N 52°03' E 003°44'0 0.0
2017-Sep-12 15:30N 52°03' E 003°44'0 0.0
2017-Sep-12 15:00N 52°03' E 003°44'0 0.0
2017-Sep-12 14:30N 52°03' E 003°44'0 0.0
2017-Sep-12 14:00N 52°03' E 003°44'0 0.0
2017-Sep-12 13:30N 52°03' E 003°44'0 0.0
2017-Sep-12 13:00N 52°03' E 003°44'0 0.0
2017-Sep-12 12:30N 52°03' E 003°44'4 8.0
2017-Sep-12 12:00N 52°03' E 003°50'4 8.2
2017-Sep-12 11:30N 52°01' E 003°56'612.1
2017-Sep-12 11:00N 51°59' E 004°05'713.7
2017-Sep-12 10:30N 51°55' E 004°14'4 9.0
2017-Sep-12 10:00N 51°53' E 004°21'0 0.0
2017-Sep-12 09:30N 51°53' E 004°21'0 0.0
2017-Sep-12 09:00N 51°53' E 004°21'0 0.0
2017-Sep-12 08:30N 51°53' E 004°21'0 0.0
2017-Sep-12 08:00N 51°53' E 004°21'0 0.0
2017-Sep-12 07:30N 51°53' E 004°21'0 0.0
2017-Sep-12 07:00N 51°53' E 004°21'0 0.0
2017-Sep-12 06:30N 51°53' E 004°21'0 0.0
2017-Sep-12 06:00N 51°53' E 004°21'0 0.0
2017-Sep-12 05:30N 51°53' E 004°21'0 0.0
2017-Sep-12 05:00N 51°53' E 004°21'0 0.0
2017-Sep-12 04:30N 51°53' E 004°21'0 0.0
2017-Sep-12 04:00N 51°53' E 004°21'0 0.0
2017-Sep-12 03:30N 51°53' E 004°21'0 0.0
2017-Sep-12 03:00N 51°53' E 004°21'0 0.0
2017-Sep-12 02:30N 51°53' E 004°21'0 0.0
2017-Sep-12 02:00N 51°53' E 004°21'0 0.0
2017-Sep-12 01:30N 51°53' E 004°21'0 0.0
2017-Sep-12 01:00N 51°53' E 004°21'0 0.0
2017-Sep-12 00:30N 51°53' E 004°21'0 0.0
2017-Sep-12 00:00N 51°53' E 004°21'0 0.0
2017-Sep-11 23:30N 51°53' E 004°21'0 0.0
2017-Sep-11 23:00N 51°53' E 004°21'0 0.0
2017-Sep-11 22:30N 51°53' E 004°21'0 0.0
2017-Sep-11 22:00N 51°53' E 004°21'0 0.0
2017-Sep-11 21:30N 51°53' E 004°21'0 0.0
2017-Sep-11 21:00N 51°53' E 004°21'0 0.0
2017-Sep-11 20:30N 51°53' E 004°21'0 0.0
2017-Sep-11 20:00N 51°53' E 004°21'0 0.0
2017-Sep-11 19:30N 51°53' E 004°21'0 0.0
2017-Sep-11 19:00N 51°53' E 004°21'0 0.0
2017-Sep-11 18:30N 51°53' E 004°21'0 0.0
2017-Sep-11 18:00N 51°53' E 004°21'0 0.0
2017-Sep-11 17:30N 51°53' E 004°21'0 0.0
2017-Sep-11 17:00N 51°53' E 004°21'0 0.0
2017-Sep-11 16:30N 51°53' E 004°21'0 0.0
2017-Sep-11 16:00N 51°53' E 004°21'0 0.0
2017-Sep-11 15:30N 51°53' E 004°21'0 0.0
2017-Sep-11 15:00N 51°53' E 004°21'0 0.0
2017-Sep-11 14:30N 51°53' E 004°21'0 0.0
2017-Sep-11 14:00N 51°53' E 004°21'0 0.0
2017-Sep-11 13:30N 51°53' E 004°21'0 0.0
2017-Sep-11 13:00N 51°53' E 004°21'0 0.0
2017-Sep-11 12:30N 51°53' E 004°21'0 0.0
2017-Sep-11 12:00N 51°53' E 004°21'0 0.0
2017-Sep-11 11:30N 51°53' E 004°21'0 0.0
2017-Sep-11 11:00N 51°53' E 004°21'0 0.0
2017-Sep-11 10:30N 51°53' E 004°21'0 0.0
2017-Sep-11 10:00N 51°53' E 004°21'0 0.0
2017-Sep-11 09:30N 51°53' E 004°21'0 0.0
2017-Sep-11 09:00N 51°53' E 004°21'0 0.0
2017-Sep-11 08:30N 51°53' E 004°21'0 0.0
2017-Sep-11 08:00N 51°53' E 004°21'0 0.0
2017-Sep-11 07:30N 51°53' E 004°21'1 1.4
2017-Sep-11 07:00N 51°54' E 004°21'3 5.8
2017-Sep-11 06:30N 51°51' E 004°22'4 9.0
2017-Sep-11 06:00N 51°50' E 004°29'4 8.4
2017-Sep-11 05:30N 51°48' E 004°35'2 4.0
2017-Sep-11 04:59N 51°47' E 004°38'0 0.0
2017-Sep-11 04:26N 51°47' E 004°38'0 0.0
2017-Sep-11 03:59N 51°47' E 004°38'0 0.0
2017-Sep-11 03:26N 51°47' E 004°38'0 0.0
2017-Sep-11 02:56N 51°47' E 004°38'0 0.0
2017-Sep-11 02:29N 51°47' E 004°38'0 0.0
2017-Sep-11 01:56N 51°47' E 004°38'0 0.0
2017-Sep-11 01:14N 51°47' E 004°38'0 0.0
2017-Sep-11 00:53N 51°47' E 004°38'0 0.0
2017-Sep-11 00:29N 51°47' E 004°38'0 0.0
2017-Sep-10 23:59N 51°47' E 004°38'0 0.0
2017-Sep-10 23:20N 51°47' E 004°38'0 0.0
2017-Sep-10 22:56N 51°47' E 004°38'0 0.0
2017-Sep-10 22:29N 51°47' E 004°38'0 0.0
2017-Sep-10 21:50N 51°47' E 004°38'0 0.0
2017-Sep-10 21:29N 51°47' E 004°38'0 0.0
2017-Sep-10 20:44N 51°47' E 004°38'0 0.0
2017-Sep-10 20:20N 51°47' E 004°38'0 0.0
2017-Sep-10 19:59N 51°47' E 004°38'0 0.0
2017-Sep-10 19:29N 51°47' E 004°38'0 0.0
2017-Sep-10 18:59N 51°47' E 004°38'  
Track history (hours):
 
Tides and Currents Weather Stations Pressure Air Temp Water Temp Dewpoint Dewpoint Depression Visibility Wind Speed Wind Dir Waves Ship Positions

Else Marie Theresa

Last reported at 2017-Sep-20 18:29 UTC. Time now 2017-Sep-21 01:21 UTC.
Position N 54°14' E 011°59'.

Length 96 m; draft 6.8 m.

Type: Tanker. MMSI: 220002000.

Date/timePositionNaut miles runAvg speedWind from/ knotsBaromVisibWave heightAir tempDewpointWater temp
2017-Sep-20 18:29N 54°14' E 011°59'1 0.8
2017-Sep-20 17:30N 54°14' E 011°58'0 0.0
2017-Sep-20 15:30N 54°14' E 011°58'0 0.0
2017-Sep-20 15:00N 54°14' E 011°58'0 0.0
2017-Sep-20 12:45N 54°14' E 011°58'0 0.0
2017-Sep-20 12:29N 54°14' E 011°58'0 0.0
2017-Sep-20 11:59N 54°14' E 011°58'0 0.0
2017-Sep-20 11:29N 54°14' E 011°58'0 0.0
2017-Sep-20 09:44N 54°14' E 011°58'0 0.0
2017-Sep-20 09:29N 54°14' E 011°58'0 0.0
2017-Sep-20 08:59N 54°14' E 011°58'0 0.0
2017-Sep-20 07:44N 54°14' E 011°58'0 0.0
2017-Sep-20 07:29N 54°14' E 011°58'0 0.0
2017-Sep-20 05:12N 54°14' E 011°58'0 0.0
2017-Sep-20 04:48N 54°14' E 011°58'0 0.0
2017-Sep-20 01:29N 54°14' E 011°58'0 0.0
2017-Sep-19 23:32N 54°14' E 011°58'0 0.1
2017-Sep-19 23:29N 54°14' E 011°58'0 0.0
2017-Sep-19 22:59N 54°14' E 011°58'0 0.0
2017-Sep-19 22:29N 54°14' E 011°58'0 0.0
2017-Sep-19 21:59N 54°14' E 011°58'0 0.0
2017-Sep-19 20:44N 54°14' E 011°58'0 0.0
2017-Sep-19 20:29N 54°14' E 011°58'0 0.0
2017-Sep-19 19:17N 54°14' E 011°58'0 0.0
2017-Sep-19 18:59N 54°14' E 011°58'0 0.0
2017-Sep-19 17:14N 54°14' E 011°58'0 0.0
2017-Sep-19 16:59N 54°14' E 011°58'0 0.0
2017-Sep-19 16:17N 54°14' E 011°58'0 0.0
2017-Sep-19 15:59N 54°14' E 011°58'0 0.0
2017-Sep-19 15:14N 54°14' E 011°58'0 0.0
2017-Sep-19 14:59N 54°14' E 011°58'2 0.5
2017-Sep-19 10:03N 54°16' E 011°55'0 6.2
2017-Sep-19 10:00N 54°16' E 011°55'4 7.5
2017-Sep-19 09:30N 54°19' E 011°51'23 9.6
2017-Sep-19 07:05N 54°33' E 011°18'1 9.6
2017-Sep-19 07:00N 54°33' E 011°17'5 9.4
2017-Sep-19 06:30N 54°35' E 011°10'5 9.4
2017-Sep-19 06:00N 54°35' E 011°02'5 9.4
2017-Sep-19 05:30N 54°34' E 010°53'5 9.9
2017-Sep-19 05:00N 54°34' E 010°45'5 9.9
2017-Sep-19 04:30N 54°33' E 010°37'5 9.6
2017-Sep-19 04:00N 54°32' E 010°29'5 9.8
2017-Sep-19 03:29N 54°30' E 010°20'44 6.7
2017-Sep-18 20:54N 54°04' E 009°19'4 8.7
2017-Sep-18 20:30N 54°01' E 009°18'4 8.2
2017-Sep-18 20:00N 53°57' E 009°14'4 7.9
2017-Sep-18 19:30N 53°54' E 009°10'1 1.8
2017-Sep-18 19:00N 53°54' E 009°09'0 0.6
2017-Sep-18 18:30N 53°53' E 009°08'1 2.8
2017-Sep-18 18:00N 53°53' E 009°06'0 0.3
2017-Sep-18 17:30N 53°53' E 009°06'0 0.5
2017-Sep-18 17:00N 53°53' E 009°05'3 5.5
2017-Sep-18 16:30N 53°51' E 009°01'4 7.8
2017-Sep-18 16:01N 53°51' E 008°55'4 7.7
2017-Sep-18 15:30N 53°50' E 008°49'4 7.2
2017-Sep-18 15:01N 53°52' E 008°43'4 7.1
2017-Sep-18 14:30N 53°55' E 008°40'4 7.3
2017-Sep-18 14:00N 53°58' E 008°36'5 9.0
2017-Sep-18 13:30N 53°59' E 008°28'4 8.9
2017-Sep-18 13:00N 53°59' E 008°21'510.0
2017-Sep-18 12:30N 53°60' E 008°12'5 9.2
2017-Sep-18 12:00N 53°59' E 008°04'510.6
2017-Sep-18 11:29N 53°58' E 007°55'8912.1
2017-Sep-18 04:09N 53°34' E 005°31'213.3
2017-Sep-18 03:59N 53°34' E 005°27'613.3
2017-Sep-18 03:30N 53°32' E 005°17'713.1
2017-Sep-18 03:00N 53°30' E 005°07'613.0
2017-Sep-18 02:30N 53°27' E 004°56'612.8
2017-Sep-18 02:00N 53°25' E 004°47'611.8
2017-Sep-18 01:28N 53°20' E 004°40'3311.6
2017-Sep-17 22:39N 52°51' E 004°14'210.7
2017-Sep-17 22:26N 52°49' E 004°12'510.6
2017-Sep-17 21:55N 52°45' E 004°07'510.4
2017-Sep-17 21:25N 52°41' E 004°01'510.3
2017-Sep-17 20:54N 52°37' E 003°55'23 9.8
2017-Sep-17 18:34N 52°18' E 003°35'2 9.7
2017-Sep-17 18:25N 52°17' E 003°34'3310.3
2017-Sep-17 15:14N 51°45' E 003°17'2 9.6
2017-Sep-17 14:59N 51°43' E 003°17'611.6
2017-Sep-17 14:26N 51°37' E 003°22'511.6
2017-Sep-17 14:00N 51°33' E 003°25'612.5
2017-Sep-17 13:30N 51°28' E 003°31'5 9.0
2017-Sep-17 13:00N 51°26' E 003°38'510.9
2017-Sep-17 12:30N 51°23' E 003°44'2 4.1
2017-Sep-17 12:00N 51°21' E 003°46'0 0.0
2017-Sep-17 11:30N 51°21' E 003°46'0 0.0
2017-Sep-17 11:00N 51°21' E 003°46'0 0.0
2017-Sep-17 10:27N 51°21' E 003°46'0 0.0
2017-Sep-17 09:57N 51°21' E 003°46'0 0.0
2017-Sep-17 09:27N 51°21' E 003°46'0 0.0
2017-Sep-17 09:00N 51°21' E 003°46'0 0.0
2017-Sep-17 08:15N 51°21' E 003°46'0 0.0
2017-Sep-17 07:57N 51°21' E 003°46'0 0.0
2017-Sep-17 07:21N 51°21' E 003°46'0 0.0
2017-Sep-17 06:57N 51°21' E 003°46'0 0.0
2017-Sep-17 06:27N 51°21' E 003°46'0 0.0
2017-Sep-17 06:00N 51°21' E 003°46'0 0.0
2017-Sep-17 05:27N 51°21' E 003°46'0 0.0
2017-Sep-17 05:00N 51°21' E 003°46'0 0.0
2017-Sep-17 04:24N 51°21' E 003°46'0 0.0
2017-Sep-17 03:51N 51°21' E 003°46'0 0.0
2017-Sep-17 03:30N 51°21' E 003°46'0 0.0
2017-Sep-17 03:00N 51°21' E 003°46'0 0.0
2017-Sep-17 02:30N 51°21' E 003°46'0 0.0
2017-Sep-17 01:57N 51°21' E 003°46'0 0.0
2017-Sep-17 01:30N 51°21' E 003°46'0 0.0
2017-Sep-17 00:57N 51°21' E 003°46'0 0.0
2017-Sep-17 00:27N 51°21' E 003°46'0 0.0
2017-Sep-16 23:57N 51°21' E 003°46'0 0.0
2017-Sep-16 23:27N 51°21' E 003°46'0 0.0
2017-Sep-16 22:57N 51°21' E 003°46'0 0.0
2017-Sep-16 22:27N 51°21' E 003°46'0 0.0
2017-Sep-16 21:51N 51°21' E 003°46'0 0.0
2017-Sep-16 21:27N 51°21' E 003°46'0 0.0
2017-Sep-16 21:00N 51°21' E 003°46'0 0.0
2017-Sep-16 20:30N 51°21' E 003°46'0 0.0
2017-Sep-16 20:00N 51°21' E 003°46'0 0.0
2017-Sep-16 19:30N 51°21' E 003°46'0 0.0
2017-Sep-16 19:00N 51°21' E 003°46'0 0.0
2017-Sep-16 18:27N 51°21' E 003°46'0 0.0
2017-Sep-16 18:00N 51°21' E 003°46'0 0.0
2017-Sep-16 17:24N 51°21' E 003°46'0 0.0
2017-Sep-16 16:54N 51°21' E 003°46'0 0.0
2017-Sep-16 16:30N 51°21' E 003°46'0 0.0
2017-Sep-16 15:57N 51°21' E 003°46'0 0.0
2017-Sep-16 15:30N 51°21' E 003°46'0 0.0
2017-Sep-16 15:00N 51°21' E 003°46'0 0.0
2017-Sep-16 14:24N 51°21' E 003°46'0 0.0
2017-Sep-16 14:00N 51°21' E 003°46'0 0.0
2017-Sep-16 13:27N 51°21' E 003°46'0 0.0
2017-Sep-16 13:00N 51°21' E 003°46'0 0.0
2017-Sep-16 12:30N 51°21' E 003°46'0 0.0
2017-Sep-16 12:00N 51°21' E 003°46'0 0.0
2017-Sep-16 11:24N 51°21' E 003°46'0 0.0
2017-Sep-16 11:00N 51°21' E 003°46'0 0.0
2017-Sep-16 10:30N 51°21' E 003°46'0 0.0
2017-Sep-16 10:00N 51°21' E 003°46'0 0.0
2017-Sep-16 09:30N 51°21' E 003°46'0 0.0
2017-Sep-16 09:00N 51°21' E 003°46'0 0.0
2017-Sep-16 08:24N 51°21' E 003°46'0 0.0
2017-Sep-16 08:00N 51°21' E 003°46'0 0.0
2017-Sep-16 07:30N 51°21' E 003°46'1 2.6
2017-Sep-16 07:01N 51°22' E 003°45'2 4.9
2017-Sep-16 06:30N 51°24' E 003°42'3 6.8
2017-Sep-16 06:01N 51°26' E 003°39'510.0
2017-Sep-16 05:30N 51°28' E 003°31'611.9
2017-Sep-16 05:01N 51°32' E 003°25'611.8
2017-Sep-16 04:30N 51°38' E 003°21'612.3
2017-Sep-16 04:00N 51°43' E 003°16'4 8.4
2017-Sep-16 03:30N 51°46' E 003°21'2 0.8
2017-Sep-16 01:22N 51°47' E 003°23'0 0.0
2017-Sep-16 00:58N 51°47' E 003°23'0 0.0
2017-Sep-16 00:25N 51°47' E 003°23'0 0.0
2017-Sep-15 23:58N 51°47' E 003°23'0 0.1
2017-Sep-15 23:28N 51°47' E 003°23'0 0.0
2017-Sep-15 22:58N 51°47' E 003°23'0 0.0
2017-Sep-15 22:28N 51°47' E 003°23'0 0.0
2017-Sep-15 21:58N 51°47' E 003°23'0 0.0
2017-Sep-15 21:19N 51°47' E 003°23'0 0.0
2017-Sep-15 07:31N 51°47' E 003°23'0 0.0
2017-Sep-15 00:43N 51°47' E 003°23'0 0.1
2017-Sep-15 00:18N 51°47' E 003°23'0 0.0
2017-Sep-14 23:52N 51°47' E 003°23'0 0.1
2017-Sep-14 23:30N 51°47' E 003°23'0 0.1
2017-Sep-14 22:57N 51°47' E 003°23'0 0.0
2017-Sep-14 22:25N 51°47' E 003°23'0 0.0
2017-Sep-14 21:51N 51°47' E 003°23'0 0.0
2017-Sep-14 21:22N 51°47' E 003°23'0 0.0
2017-Sep-14 20:27N 51°47' E 003°23'0 0.0
2017-Sep-14 18:18N 51°47' E 003°23'2 6.8
2017-Sep-14 17:57N 51°47' E 003°19'712.4
2017-Sep-14 17:21N 51°45' E 003°08'512.4
2017-Sep-14 16:58N 51°44' E 003°00'0 0.1
2017-Sep-14 14:20N 51°43' E 003°00'6 9.8
2017-Sep-14 13:46N 51°45' E 002°51'3210.3
2017-Sep-14 10:37N 52°04' E 002°10'110.4
2017-Sep-14 10:30N 52°05' E 002°09'510.0
2017-Sep-14 10:01N 52°09' E 002°03'16 4.3
2017-Sep-14 06:22N 52°19' E 001°44'0 0.0
2017-Sep-14 05:58N 52°19' E 001°44'0 0.0
2017-Sep-14 05:22N 52°19' E 001°44'0 0.0
2017-Sep-14 04:58N 52°19' E 001°44'0 0.0
2017-Sep-13 09:20N 52°19' E 001°44'0 0.0
2017-Sep-13 08:56N 52°19' E 001°44'0 0.0
2017-Sep-13 08:20N 52°20' E 001°44'0 0.0
2017-Sep-13 07:44N 52°20' E 001°44'0 1.1
2017-Sep-13 07:28N 52°19' E 001°44'1 1.5
2017-Sep-13 07:00N 52°19' E 001°43'1 1.7
2017-Sep-13 06:30N 52°19' E 001°44'1 1.1
2017-Sep-13 06:00N 52°20' E 001°45'1 1.6
2017-Sep-13 05:30N 52°19' E 001°46'0 1.0
2017-Sep-13 05:00N 52°19' E 001°47'0 1.0
2017-Sep-13 04:30N 52°20' E 001°47'4 7.0
2017-Sep-13 03:55N 52°16' E 001°45'4 6.5
2017-Sep-13 03:18N 52°12' E 001°43'1 4.9
2017-Sep-13 03:00N 52°11' E 001°42'1 1.9
2017-Sep-13 02:30N 52°12' E 001°42'10 2.8
2017-Sep-12 23:07N 52°21' E 001°47'0 3.0
2017-Sep-12 22:59N 52°21' E 001°47'3 4.1
2017-Sep-12 22:22N 52°18' E 001°46'2 4.1
2017-Sep-12 22:00N 52°17' E 001°45'5 5.1
2017-Sep-12 21:03N 52°12' E 001°42'0 5.8
2017-Sep-12 21:00N 52°12' E 001°42'3 5.4
2017-Sep-12 20:30N 52°09' E 001°41'4 8.7
2017-Sep-12 20:00N 52°07' E 001°47'510.2
2017-Sep-12 19:30N 52°07' E 001°56'510.2
2017-Sep-12 19:00N 52°07' E 002°04'62120.3
2017-Sep-12 18:30N 52°03' E 003°44'0 0.0
2017-Sep-12 18:00N 52°03' E 003°44'0 0.0
2017-Sep-12 17:30N 52°03' E 003°44'0 0.0
2017-Sep-12 17:00N 52°03' E 003°44'0 0.0
2017-Sep-12 16:30N 52°03' E 003°44'0 0.0
2017-Sep-12 16:00N 52°03' E 003°44'0 0.0
2017-Sep-12 15:30N 52°03' E 003°44'0 0.0
2017-Sep-12 15:00N 52°03' E 003°44'0 0.0
2017-Sep-12 14:30N 52°03' E 003°44'0 0.0
2017-Sep-12 14:00N 52°03' E 003°44'0 0.0
2017-Sep-12 13:30N 52°03' E 003°44'0 0.0
2017-Sep-12 13:00N 52°03' E 003°44'0 0.0
2017-Sep-12 12:30N 52°03' E 003°44'4 8.0
2017-Sep-12 12:00N 52°03' E 003°50'4 8.2
2017-Sep-12 11:30N 52°01' E 003°56'612.1
2017-Sep-12 11:00N 51°59' E 004°05'713.7
2017-Sep-12 10:30N 51°55' E 004°14'4 9.0
2017-Sep-12 10:00N 51°53' E 004°21'0 0.0
2017-Sep-12 09:30N 51°53' E 004°21'0 0.0
2017-Sep-12 09:00N 51°53' E 004°21'0 0.0
2017-Sep-12 08:30N 51°53' E 004°21'0 0.0
2017-Sep-12 08:00N 51°53' E 004°21'0 0.0
2017-Sep-12 07:30N 51°53' E 004°21'0 0.0
2017-Sep-12 07:00N 51°53' E 004°21'0 0.0
2017-Sep-12 06:30N 51°53' E 004°21'0 0.0
2017-Sep-12 06:00N 51°53' E 004°21'0 0.0
2017-Sep-12 05:30N 51°53' E 004°21'0 0.0
2017-Sep-12 05:00N 51°53' E 004°21'0 0.0
2017-Sep-12 04:30N 51°53' E 004°21'0 0.0
2017-Sep-12 04:00N 51°53' E 004°21'0 0.0
2017-Sep-12 03:30N 51°53' E 004°21'0 0.0
2017-Sep-12 03:00N 51°53' E 004°21'0 0.0
2017-Sep-12 02:30N 51°53' E 004°21'0 0.0
2017-Sep-12 02:00N 51°53' E 004°21'0 0.0
2017-Sep-12 01:30N 51°53' E 004°21'0 0.0
2017-Sep-12 01:00N 51°53' E 004°21'0 0.0
2017-Sep-12 00:30N 51°53' E 004°21'0 0.0
2017-Sep-12 00:00N 51°53' E 004°21'0 0.0
2017-Sep-11 23:30N 51°53' E 004°21'0 0.0
2017-Sep-11 23:00N 51°53' E 004°21'0 0.0
2017-Sep-11 22:30N 51°53' E 004°21'0 0.0
2017-Sep-11 22:00N 51°53' E 004°21'0 0.0
2017-Sep-11 21:30N 51°53' E 004°21'0 0.0
2017-Sep-11 21:00N 51°53' E 004°21'0 0.0
2017-Sep-11 20:30N 51°53' E 004°21'0 0.0
2017-Sep-11 20:00N 51°53' E 004°21'0 0.0
2017-Sep-11 19:30N 51°53' E 004°21'0 0.0
2017-Sep-11 19:00N 51°53' E 004°21'0 0.0
2017-Sep-11 18:30N 51°53' E 004°21'0 0.0
2017-Sep-11 18:00N 51°53' E 004°21'0 0.0
2017-Sep-11 17:30N 51°53' E 004°21'0 0.0
2017-Sep-11 17:00N 51°53' E 004°21'0 0.0
2017-Sep-11 16:30N 51°53' E 004°21'0 0.0
2017-Sep-11 16:00N 51°53' E 004°21'0 0.0
2017-Sep-11 15:30N 51°53' E 004°21'0 0.0
2017-Sep-11 15:00N 51°53' E 004°21'0 0.0
2017-Sep-11 14:30N 51°53' E 004°21'0 0.0
2017-Sep-11 14:00N 51°53' E 004°21'0 0.0
2017-Sep-11 13:30N 51°53' E 004°21'0 0.0
2017-Sep-11 13:00N 51°53' E 004°21'0 0.0
2017-Sep-11 12:30N 51°53' E 004°21'0 0.0
2017-Sep-11 12:00N 51°53' E 004°21'0 0.0
2017-Sep-11 11:30N 51°53' E 004°21'0 0.0
2017-Sep-11 11:00N 51°53' E 004°21'0 0.0
2017-Sep-11 10:30N 51°53' E 004°21'0 0.0
2017-Sep-11 10:00N 51°53' E 004°21'0 0.0
2017-Sep-11 09:30N 51°53' E 004°21'0 0.0
2017-Sep-11 09:00N 51°53' E 004°21'0 0.0
2017-Sep-11 08:30N 51°53' E 004°21'0 0.0
2017-Sep-11 08:00N 51°53' E 004°21'0 0.0
2017-Sep-11 07:30N 51°53' E 004°21'1 1.4
2017-Sep-11 07:00N 51°54' E 004°21'3 5.8
2017-Sep-11 06:30N 51°51' E 004°22'4 9.0
2017-Sep-11 06:00N 51°50' E 004°29'4 8.4
2017-Sep-11 05:30N 51°48' E 004°35'2 4.0
2017-Sep-11 04:59N 51°47' E 004°38'0 0.0
2017-Sep-11 04:26N 51°47' E 004°38'0 0.0
2017-Sep-11 03:59N 51°47' E 004°38'0 0.0
2017-Sep-11 03:26N 51°47' E 004°38'0 0.0
2017-Sep-11 02:56N 51°47' E 004°38'0 0.0
2017-Sep-11 02:29N 51°47' E 004°38'0 0.0
2017-Sep-11 01:56N 51°47' E 004°38'0 0.0
2017-Sep-11 01:14N 51°47' E 004°38'0 0.0
2017-Sep-11 00:53N 51°47' E 004°38'0 0.0
2017-Sep-11 00:29N 51°47' E 004°38'0 0.0
2017-Sep-10 23:59N 51°47' E 004°38'0 0.0
2017-Sep-10 23:20N 51°47' E 004°38'0 0.0
2017-Sep-10 22:56N 51°47' E 004°38'0 0.0
2017-Sep-10 22:29N 51°47' E 004°38'0 0.0
2017-Sep-10 21:50N 51°47' E 004°38'0 0.0
2017-Sep-10 21:29N 51°47' E 004°38'0 0.0
2017-Sep-10 20:44N 51°47' E 004°38'0 0.0
2017-Sep-10 20:20N 51°47' E 004°38'0 0.0
2017-Sep-10 19:59N 51°47' E 004°38'0 0.0
2017-Sep-10 19:29N 51°47' E 004°38'0 0.0
2017-Sep-10 18:59N 51°47' E 004°38'  

Dump ship's entire track history